createdAt,value
2023-02-06T00:00:12.398Z,34.37
2023-02-06T00:02:40.067Z,33.50
2023-02-06T00:05:09.556Z,37.07
2023-02-06T00:07:37.113Z,33.30
2023-02-06T00:10:05.157Z,33.53
2023-02-06T00:12:33.057Z,26.93
2023-02-06T00:15:00.680Z,32.03
2023-02-06T00:17:28.517Z,29.97
2023-02-06T00:19:56.169Z,30.60
2023-02-06T00:22:25.155Z,44.40
2023-02-06T00:24:52.751Z,30.20
2023-02-06T00:27:20.354Z,26.53
2023-02-06T00:29:48.112Z,30.87
2023-02-06T00:32:15.861Z,31.77
2023-02-06T00:34:43.659Z,26.23
2023-02-06T00:37:11.745Z,34.60
2023-02-06T00:39:40.673Z,25.33
2023-02-06T00:42:08.478Z,31.17
2023-02-06T00:44:36.151Z,27.37
2023-02-06T00:47:06.061Z,27.67
2023-02-06T00:49:33.675Z,24.97
2023-02-06T00:52:01.285Z,28.30
2023-02-06T00:54:29.076Z,33.17
2023-02-06T00:56:59.075Z,27.30
2023-02-06T00:59:26.663Z,27.67
2023-02-06T01:01:54.392Z,22.47
2023-02-06T01:04:22.104Z,20.97
2023-02-06T01:06:49.734Z,16.43
2023-02-06T01:09:17.398Z,29.30
2023-02-06T01:11:45.115Z,26.03
2023-02-06T01:14:15.841Z,21.63
2023-02-06T01:16:44.437Z,27.93
2023-02-06T01:19:12.050Z,29.17
2023-02-06T01:21:39.677Z,23.23
2023-02-06T01:24:07.409Z,25.70
2023-02-06T01:26:35.165Z,22.63
2023-02-06T01:29:04.165Z,19.80
2023-02-06T01:31:33.109Z,28.23
2023-02-06T01:34:01.540Z,20.23
2023-02-06T01:36:29.642Z,24.60
2023-02-06T01:38:57.745Z,23.03
2023-02-06T01:41:25.646Z,20.07
2023-02-06T01:44:11.918Z,22.93
2023-02-06T01:46:42.479Z,26.63
2023-02-06T01:49:13.548Z,28.13
2023-02-06T01:51:41.420Z,20.33
2023-02-06T01:54:09.735Z,24.70
2023-02-06T01:56:40.808Z,25.77
2023-02-06T01:59:08.495Z,24.17
2023-02-06T02:01:36.183Z,19.50
2023-02-06T02:04:07.205Z,22.40
2023-02-06T02:06:35.331Z,22.70
2023-02-06T02:09:04.778Z,21.80
2023-02-06T02:11:34.042Z,17.27
2023-02-06T02:14:02.328Z,16.47
2023-02-06T02:16:40.214Z,14.70
2023-02-06T02:19:46.608Z,21.67
2023-02-06T02:22:41.216Z,25.90
2023-02-06T02:25:24.886Z,18.93
2023-02-06T02:28:04.855Z,21.77
2023-02-06T02:30:48.967Z,20.60
2023-02-06T02:33:53.423Z,20.67
2023-02-06T02:36:26.452Z,23.03
2023-02-06T02:39:00.605Z,20.80
2023-02-06T02:41:34.719Z,21.50
2023-02-06T02:44:07.084Z,22.13
2023-02-06T02:46:38.181Z,24.17
2023-02-06T02:49:08.575Z,21.90
2023-02-06T02:51:38.805Z,22.10
2023-02-06T02:54:06.871Z,17.57
2023-02-06T02:56:36.042Z,17.30
2023-02-06T02:59:09.232Z,16.40
2023-02-06T03:01:41.194Z,22.63
2023-02-06T03:04:13.262Z,16.00
2023-02-06T03:06:56.779Z,13.53
2023-02-06T03:09:33.196Z,27.77
2023-02-06T03:12:06.474Z,18.53
2023-02-06T03:14:35.962Z,19.30
2023-02-06T03:17:06.492Z,16.20
2023-02-06T03:19:39.088Z,35.63
2023-02-06T03:22:08.208Z,24.03
2023-02-06T03:24:38.680Z,20.13
2023-02-06T03:27:09.993Z,17.60
2023-02-06T03:29:39.404Z,19.63
2023-02-06T03:32:09.811Z,20.83
2023-02-06T03:34:41.622Z,21.10
2023-02-06T03:37:12.069Z,16.40
2023-02-06T03:39:39.893Z,18.43
2023-02-06T03:42:08.134Z,17.30
2023-02-06T03:44:38.269Z,15.37
2023-02-06T03:47:07.430Z,11.53
2023-02-06T03:49:35.565Z,15.83
2023-02-06T03:52:06.831Z,24.20
2023-02-06T03:54:37.241Z,21.43
2023-02-06T03:57:05.838Z,21.43
2023-02-06T03:59:33.914Z,19.67
2023-02-06T04:02:04.268Z,20.43
2023-02-06T04:04:35.729Z,16.63
2023-02-06T04:07:07.259Z,15.20
2023-02-06T04:09:36.513Z,13.40
2023-02-06T04:12:04.577Z,16.20
2023-02-06T04:14:32.286Z,17.27
2023-02-06T04:17:00.222Z,22.47
2023-02-06T04:19:27.958Z,18.40
2023-02-06T04:21:55.824Z,14.20
2023-02-06T04:24:23.480Z,28.67
2023-02-06T04:26:52.750Z,17.87
2023-02-06T04:29:20.611Z,23.10
2023-02-06T04:31:48.474Z,17.90
2023-02-06T04:34:16.280Z,31.40
2023-02-06T04:36:43.941Z,20.87
2023-02-06T04:39:11.741Z,19.57
2023-02-06T04:41:39.417Z,29.57
2023-02-06T04:44:08.576Z,22.73
2023-02-06T04:46:36.549Z,19.80
2023-02-06T04:49:04.771Z,29.90
2023-02-06T04:51:32.626Z,17.57
2023-02-06T04:54:00.548Z,20.70
2023-02-06T04:56:28.348Z,33.57
2023-02-06T04:58:56.182Z,27.93
2023-02-06T05:01:25.656Z,13.37
2023-02-06T05:03:53.245Z,20.23
2023-02-06T05:06:20.987Z,23.37
2023-02-06T05:08:48.742Z,15.90
2023-02-06T05:11:16.472Z,26.77
2023-02-06T05:13:44.207Z,18.23
2023-02-06T05:16:20.254Z,16.37
2023-02-06T05:18:49.246Z,41.03
2023-02-06T05:21:16.798Z,20.13
2023-02-06T05:23:44.542Z,21.53
2023-02-06T05:26:12.146Z,16.90
2023-02-06T05:28:42.008Z,18.93
2023-02-06T05:31:09.933Z,16.47
2023-02-06T05:33:37.721Z,26.63
2023-02-06T05:36:08.671Z,20.53
2023-02-06T05:38:36.305Z,23.70
2023-02-06T05:41:11.114Z,24.10
2023-02-06T05:43:39.243Z,19.43
2023-02-06T05:46:07.223Z,24.00
2023-02-06T05:48:35.184Z,31.63
2023-02-06T05:51:07.203Z,15.30
2023-02-06T05:53:35.027Z,21.00
2023-02-06T05:56:02.949Z,18.47
2023-02-06T05:58:30.788Z,21.60
2023-02-06T06:00:58.511Z,45.10
2023-02-06T06:03:26.057Z,13.53
2023-02-06T06:05:54.596Z,18.90
2023-02-06T06:08:26.538Z,25.40
2023-02-06T06:10:54.338Z,22.37
2023-02-06T06:13:21.874Z,24.33
2023-02-06T06:15:51.614Z,31.90
2023-02-06T06:18:19.299Z,21.23
2023-02-06T06:20:47.098Z,22.77
2023-02-06T06:23:14.748Z,20.37
2023-02-06T06:25:43.739Z,19.60
2023-02-06T06:28:11.399Z,23.37
2023-02-06T06:30:39.059Z,23.10
2023-02-06T06:33:06.959Z,24.43
2023-02-06T06:35:34.965Z,12.63
2023-02-06T06:38:02.845Z,22.97
2023-02-06T06:40:30.344Z,22.17
2023-02-06T06:42:59.435Z,22.40
2023-02-06T06:45:27.167Z,26.97
2023-02-06T06:47:54.675Z,28.67
2023-02-06T06:50:22.273Z,25.47
2023-02-06T06:52:49.853Z,21.30
2023-02-06T06:55:19.427Z,33.83
2023-02-06T06:57:47.201Z,27.93
2023-02-06T07:00:17.497Z,36.27
2023-02-06T07:02:45.305Z,34.80
2023-02-06T07:05:12.908Z,21.93
2023-02-06T07:07:40.576Z,38.20
2023-02-06T07:10:09.253Z,27.43
2023-02-06T07:12:37.084Z,23.07
2023-02-06T07:15:05.087Z,31.67
2023-02-06T07:17:34.142Z,21.00
2023-02-06T07:20:01.996Z,18.90
2023-02-06T07:22:29.609Z,25.47
2023-02-06T07:24:57.301Z,38.50
2023-02-06T07:27:26.071Z,21.70
2023-02-06T07:29:53.760Z,15.53
2023-02-06T07:32:21.411Z,21.40
2023-02-06T07:34:50.473Z,26.07
2023-02-06T07:37:18.138Z,20.97
2023-02-06T07:39:45.753Z,29.00
2023-02-06T07:42:13.609Z,26.93
2023-02-06T07:44:52.210Z,20.17
2023-02-06T07:47:19.835Z,26.10
2023-02-06T07:49:47.543Z,25.60
2023-02-06T07:52:16.600Z,24.43
2023-02-06T07:54:44.464Z,27.40
2023-02-06T07:57:12.141Z,34.80
2023-02-06T07:59:39.794Z,25.03
2023-02-06T08:02:07.752Z,30.77
2023-02-06T08:04:36.594Z,26.73
2023-02-06T08:07:04.716Z,26.63
2023-02-06T08:09:33.914Z,34.03
2023-02-06T08:12:01.564Z,21.73
2023-02-06T08:14:29.448Z,25.10
2023-02-06T08:16:57.037Z,37.87
2023-02-06T08:19:24.919Z,26.70
2023-02-06T08:21:52.526Z,36.57
2023-02-06T08:24:20.144Z,33.50
2023-02-06T08:26:49.003Z,25.33
2023-02-06T08:29:16.762Z,43.53
2023-02-06T08:31:44.774Z,36.57
2023-02-06T08:34:14.172Z,35.93
2023-02-06T08:36:43.576Z,32.67
2023-02-06T08:39:12.336Z,35.27
2023-02-06T08:41:41.357Z,30.43
2023-02-06T08:44:12.948Z,24.67
2023-02-06T08:46:41.166Z,26.20
2023-02-06T08:49:12.950Z,27.43
2023-02-06T08:51:40.644Z,24.70
2023-02-06T08:54:09.902Z,29.40
2023-02-06T08:56:38.214Z,25.90
2023-02-06T08:59:07.303Z,31.23
2023-02-06T09:01:37.762Z,28.00
2023-02-06T09:04:07.413Z,29.00
2023-02-06T09:06:36.026Z,36.37
2023-02-06T09:09:05.089Z,26.57
2023-02-06T09:11:33.476Z,22.23
2023-02-06T09:14:02.473Z,22.00
2023-02-06T09:16:33.137Z,22.60
2023-02-06T09:19:03.263Z,31.93
2023-02-06T09:21:32.789Z,20.50
2023-02-06T09:24:02.080Z,29.67
2023-02-06T09:26:33.275Z,21.30
2023-02-06T09:29:03.053Z,29.90
2023-02-06T09:31:31.758Z,25.53
2023-02-06T09:34:00.302Z,28.37
2023-02-06T09:36:30.288Z,26.53
2023-02-06T09:38:58.719Z,29.60
2023-02-06T09:41:30.889Z,35.43
2023-02-06T09:44:00.802Z,26.80
2023-02-06T09:46:32.312Z,32.53
2023-02-06T09:49:01.919Z,31.23
2023-02-06T09:51:40.591Z,35.87
2023-02-06T09:54:16.290Z,28.97
2023-02-06T09:56:49.996Z,34.40
2023-02-06T09:59:25.258Z,27.83
2023-02-06T10:02:01.748Z,33.40
2023-02-06T10:04:38.470Z,26.03
2023-02-06T10:07:19.795Z,25.77
2023-02-06T10:09:50.626Z,18.93
2023-02-06T10:12:21.259Z,20.47
2023-02-06T10:14:51.253Z,24.70
2023-02-06T10:17:33.473Z,28.33
2023-02-06T10:20:03.310Z,36.80
2023-02-06T10:22:35.551Z,25.23
2023-02-06T10:25:17.996Z,22.40
2023-02-06T10:27:47.113Z,21.83
2023-02-06T10:30:18.322Z,22.03
2023-02-06T10:32:51.277Z,28.17
2023-02-06T10:35:43.489Z,27.80
2023-02-06T10:38:54.139Z,31.43
2023-02-06T10:41:31.085Z,26.67
2023-02-06T10:44:01.017Z,30.23
2023-02-06T10:46:39.583Z,23.77
2023-02-06T10:49:15.175Z,27.87
2023-02-06T10:51:44.740Z,30.50
2023-02-06T10:54:16.904Z,21.57
2023-02-06T10:56:47.645Z,19.83
2023-02-06T10:59:23.680Z,21.93
2023-02-06T11:01:53.491Z,26.73
2023-02-06T11:04:35.674Z,23.87
2023-02-06T11:07:07.080Z,21.20
2023-02-06T11:09:34.863Z,15.50
2023-02-06T11:12:05.160Z,17.67
2023-02-06T11:14:37.285Z,22.87
2023-02-06T11:17:04.856Z,23.70
2023-02-06T11:19:40.331Z,23.70
2023-02-06T11:22:13.056Z,17.27
2023-02-06T11:24:59.662Z,18.17
2023-02-06T11:27:29.316Z,22.10
2023-02-06T11:29:57.236Z,20.50
2023-02-06T11:32:31.876Z,20.00
2023-02-06T11:35:01.257Z,22.90
2023-02-06T11:37:34.178Z,26.40
2023-02-06T11:40:29.255Z,23.67
2023-02-06T11:43:19.741Z,21.90
2023-02-06T11:45:52.317Z,23.10
2023-02-06T11:48:36.276Z,20.50
2023-02-06T11:51:03.969Z,24.77
2023-02-06T11:53:31.986Z,18.93
2023-02-06T11:56:17.019Z,15.53
2023-02-06T11:58:46.631Z,15.33
2023-02-06T12:01:20.127Z,26.20
2023-02-06T12:03:56.759Z,15.23
2023-02-06T12:06:30.293Z,37.43
2023-02-06T12:08:59.354Z,13.90
2023-02-06T12:11:29.556Z,12.47
2023-02-06T12:14:04.683Z,16.53
2023-02-06T12:16:33.918Z,17.93
2023-02-06T12:19:02.168Z,12.70
2023-02-06T12:21:38.828Z,16.50
2023-02-06T12:24:19.692Z,16.67
2023-02-06T12:26:48.865Z,18.03
2023-02-06T12:29:20.237Z,19.97
2023-02-06T12:31:52.989Z,14.90
2023-02-06T12:34:23.326Z,13.60
2023-02-06T12:37:00.179Z,14.43
2023-02-06T12:39:32.600Z,13.40
2023-02-06T12:42:21.890Z,12.93
2023-02-06T12:44:55.543Z,16.20
2023-02-06T12:47:29.566Z,22.67
2023-02-06T12:50:03.123Z,18.83
2023-02-06T12:52:32.869Z,23.03
2023-02-06T12:55:07.169Z,20.50
2023-02-06T12:57:35.504Z,21.43
2023-02-06T13:00:17.275Z,17.20
2023-02-06T13:03:17.378Z,21.50
2023-02-06T13:05:47.768Z,23.10
2023-02-06T13:08:17.550Z,16.43
2023-02-06T13:10:45.253Z,13.27
2023-02-06T13:13:29.544Z,16.93
2023-02-06T13:16:00.698Z,15.90
2023-02-06T13:18:56.689Z,18.97
2023-02-06T13:21:30.203Z,17.83
2023-02-06T13:24:17.546Z,16.97
2023-02-06T13:27:14.469Z,13.47
2023-02-06T13:29:44.592Z,19.93
2023-02-06T13:32:50.645Z,19.73
2023-02-06T13:35:25.793Z,16.03
2023-02-06T13:38:28.557Z,12.43
2023-02-06T13:41:18.785Z,20.80
2023-02-06T13:43:49.964Z,18.97
2023-02-06T13:46:20.780Z,17.70
2023-02-06T13:49:19.223Z,16.53
2023-02-06T13:51:50.199Z,20.97
2023-02-06T13:54:50.583Z,20.57
2023-02-06T13:57:45.468Z,12.53
2023-02-06T14:00:16.127Z,11.00
2023-02-06T14:02:47.493Z,22.07
2023-02-06T14:05:19.223Z,19.10
2023-02-06T14:08:09.558Z,19.73
2023-02-06T14:11:15.673Z,19.03
2023-02-06T14:14:08.356Z,14.77
2023-02-06T14:16:44.518Z,21.93
2023-02-06T14:19:21.287Z,18.27
2023-02-06T14:21:58.612Z,11.83
2023-02-06T14:24:37.868Z,15.33
2023-02-06T14:27:18.470Z,18.90
2023-02-06T14:29:55.139Z,20.77
2023-02-06T14:32:34.678Z,22.77
2023-02-06T14:35:15.145Z,18.57
2023-02-06T14:37:54.803Z,13.43
2023-02-06T14:40:23.681Z,17.60
2023-02-06T14:42:52.602Z,16.63
2023-02-06T14:45:33.845Z,31.53
2023-02-06T14:48:07.662Z,13.27
2023-02-06T14:50:36.868Z,21.03
2023-02-06T14:53:08.167Z,18.13
2023-02-06T14:55:38.797Z,15.77
2023-02-06T14:58:22.200Z,32.80
2023-02-06T15:00:49.928Z,12.37
2023-02-06T15:03:31.018Z,16.17
2023-02-06T15:06:04.065Z,17.50
2023-02-06T15:08:33.749Z,13.63
2023-02-06T15:11:03.468Z,17.17
2023-02-06T15:13:35.628Z,13.33
2023-02-06T15:16:05.973Z,14.93
2023-02-06T15:18:34.190Z,14.97
2023-02-06T15:21:03.461Z,11.43
2023-02-06T15:23:42.433Z,13.00
2023-02-06T15:26:18.878Z,12.60
2023-02-06T15:28:46.579Z,12.23
2023-02-06T15:31:18.119Z,11.27
2023-02-06T15:33:49.667Z,16.20
2023-02-06T15:36:22.927Z,16.97
2023-02-06T15:38:52.214Z,16.03
2023-02-06T15:41:20.405Z,16.13
2023-02-06T15:43:48.232Z,10.50
2023-02-06T15:46:16.118Z,10.50
2023-02-06T15:48:51.324Z,18.80
2023-02-06T15:51:24.730Z,15.07
2023-02-06T15:54:06.996Z,11.83
2023-02-06T15:56:37.120Z,16.53
2023-02-06T15:59:08.220Z,14.00
2023-02-06T16:01:40.449Z,13.70
2023-02-06T16:04:12.186Z,13.33
2023-02-06T16:06:40.128Z,19.57
2023-02-06T16:09:09.389Z,11.93
2023-02-06T16:11:50.646Z,13.03
2023-02-06T16:14:21.931Z,12.30
2023-02-06T16:16:57.998Z,14.03
2023-02-06T16:19:48.244Z,14.30
2023-02-06T16:22:19.020Z,16.50
2023-02-06T16:24:48.050Z,13.40
2023-02-06T16:27:18.396Z,20.80
2023-02-06T16:29:49.180Z,18.63
2023-02-06T16:32:18.760Z,24.33
2023-02-06T16:34:47.394Z,20.80
2023-02-06T16:37:16.581Z,17.77
2023-02-06T16:39:45.453Z,15.00
2023-02-06T16:42:17.125Z,15.17
2023-02-06T16:44:47.760Z,15.57
2023-02-06T16:47:18.821Z,13.70
2023-02-06T16:49:49.704Z,17.40
2023-02-06T16:52:20.787Z,19.63
2023-02-06T16:54:48.653Z,17.60
2023-02-06T16:57:24.445Z,14.10
2023-02-06T16:59:52.320Z,15.43
2023-02-06T17:02:19.977Z,18.97
2023-02-06T17:04:48.447Z,17.83
2023-02-06T17:07:18.382Z,24.50
2023-02-06T17:09:46.824Z,25.27
2023-02-06T17:12:16.304Z,22.97
2023-02-06T17:14:46.232Z,25.53
2023-02-06T17:17:14.943Z,18.37
2023-02-06T17:19:42.997Z,18.10
2023-02-06T17:22:11.794Z,23.70
2023-02-06T17:24:40.402Z,17.20
2023-02-06T17:27:13.604Z,18.80
2023-02-06T17:29:41.256Z,25.57
2023-02-06T17:32:10.159Z,22.80
2023-02-06T17:34:38.346Z,25.23
2023-02-06T17:37:08.024Z,29.83
2023-02-06T17:39:36.034Z,30.37
2023-02-06T17:42:03.742Z,31.53
2023-02-06T17:44:31.364Z,19.53
2023-02-06T17:46:58.921Z,25.97
2023-02-06T17:49:28.046Z,25.53
2023-02-06T17:51:56.563Z,24.53
2023-02-06T17:54:24.168Z,19.17
2023-02-06T17:56:51.725Z,17.70
2023-02-06T17:59:19.412Z,25.50
2023-02-06T18:01:46.985Z,27.87
2023-02-06T18:04:17.320Z,17.23
2023-02-06T18:06:46.994Z,22.23
2023-02-06T18:09:14.555Z,19.30
2023-02-06T18:11:42.167Z,26.27
2023-02-06T18:14:09.733Z,22.20
2023-02-06T18:16:42.624Z,23.77
2023-02-06T18:19:10.499Z,25.00
2023-02-06T18:21:38.091Z,19.93
2023-02-06T18:24:08.066Z,19.93
2023-02-06T18:26:35.673Z,24.87
2023-02-06T18:29:04.865Z,27.13
2023-02-06T18:31:35.647Z,30.27
2023-02-06T18:34:07.578Z,23.30
2023-02-06T18:36:35.402Z,27.27
2023-02-06T18:39:03.017Z,19.40
2023-02-06T18:41:49.468Z,25.53
2023-02-06T18:44:17.216Z,24.03
2023-02-06T18:46:44.765Z,23.90
2023-02-06T18:49:12.434Z,27.70
2023-02-06T18:51:40.109Z,33.07
2023-02-06T18:54:09.850Z,27.90
2023-02-06T18:56:39.300Z,28.00
2023-02-06T18:59:06.971Z,33.60
2023-02-06T19:01:34.563Z,31.70
2023-02-06T19:04:02.148Z,34.23
2023-02-06T19:06:32.142Z,38.60
2023-02-06T19:08:59.906Z,26.70
2023-02-06T19:11:27.971Z,38.63
2023-02-06T19:13:56.946Z,35.90
2023-02-06T19:16:26.408Z,33.33
2023-02-06T19:18:54.235Z,32.20
2023-02-06T19:21:23.158Z,36.27
2023-02-06T19:23:55.055Z,31.10
2023-02-06T19:26:22.944Z,38.27
2023-02-06T19:28:50.566Z,39.27
2023-02-06T19:31:23.867Z,39.93
2023-02-06T19:33:52.911Z,39.03
2023-02-06T19:36:21.877Z,43.87
2023-02-06T19:38:50.352Z,51.00
2023-02-06T19:41:20.456Z,38.80
2023-02-06T19:43:48.970Z,34.03
2023-02-06T19:46:20.107Z,43.13
2023-02-06T19:48:48.793Z,41.07
2023-02-06T19:51:19.095Z,36.33
2023-02-06T19:53:46.907Z,31.37
2023-02-06T19:56:15.642Z,29.73
2023-02-06T19:58:43.289Z,39.83
2023-02-06T20:01:12.056Z,35.07
2023-02-06T20:03:41.230Z,39.63
2023-02-06T20:06:10.817Z,29.90
2023-02-06T20:08:38.826Z,37.27
2023-02-06T20:11:07.050Z,28.63
2023-02-06T20:13:35.112Z,36.93
2023-02-06T20:16:04.599Z,33.30
2023-02-06T20:18:32.273Z,31.10
2023-02-06T20:21:01.485Z,30.57
2023-02-06T20:23:29.438Z,32.23
2023-02-06T20:25:57.027Z,29.67
2023-02-06T20:28:25.033Z,41.07
2023-02-06T20:30:52.642Z,38.47
2023-02-06T20:33:20.315Z,41.60
2023-02-06T20:35:47.915Z,31.50
2023-02-06T20:38:16.791Z,39.93
2023-02-06T20:40:50.881Z,30.80
2023-02-06T20:43:18.581Z,31.33
2023-02-06T20:45:46.158Z,32.50
2023-02-06T20:48:13.657Z,35.73
2023-02-06T20:50:41.234Z,31.10
2023-02-06T20:53:08.815Z,31.40
2023-02-06T20:55:42.233Z,32.17
2023-02-06T20:58:09.694Z,39.83
2023-02-06T21:00:37.557Z,32.47
2023-02-06T21:03:05.685Z,37.93
2023-02-06T21:05:33.203Z,34.63
2023-02-06T21:08:00.740Z,32.80
2023-02-06T21:10:29.081Z,38.07
2023-02-06T21:12:57.949Z,43.23
2023-02-06T21:15:25.538Z,37.63
2023-02-06T21:17:53.126Z,42.90
2023-02-06T21:20:20.728Z,38.63
2023-02-06T21:22:52.677Z,43.17
2023-02-06T21:25:21.426Z,31.43
2023-02-06T21:27:48.986Z,33.93
2023-02-06T21:30:18.697Z,47.97
2023-02-06T21:32:46.227Z,37.03
2023-02-06T21:35:13.871Z,41.13
2023-02-06T21:37:41.339Z,35.50
2023-02-06T21:40:09.710Z,45.70
2023-02-06T21:42:37.174Z,40.33
2023-02-06T21:45:05.320Z,35.60
2023-02-06T21:47:35.131Z,32.63
2023-02-06T21:50:02.703Z,38.73
2023-02-06T21:52:30.262Z,42.10
2023-02-06T21:54:58.008Z,46.10
2023-02-06T21:57:25.599Z,46.43
2023-02-06T21:59:53.084Z,33.50
2023-02-06T22:02:20.571Z,37.53
2023-02-06T22:04:49.485Z,37.13
2023-02-06T22:07:17.360Z,31.27
2023-02-06T22:09:45.060Z,37.73
2023-02-06T22:12:12.526Z,35.73
2023-02-06T22:14:40.040Z,40.03
2023-02-06T22:17:07.519Z,35.97
2023-02-06T22:19:37.627Z,38.03
2023-02-06T22:22:06.576Z,36.47
2023-02-06T22:24:34.084Z,34.60
2023-02-06T22:27:01.660Z,36.70
2023-02-06T22:29:30.022Z,34.60
2023-02-06T22:31:58.278Z,39.70
2023-02-06T22:34:25.852Z,34.67
2023-02-06T22:36:53.312Z,37.40
2023-02-06T22:39:22.252Z,34.70
2023-02-06T22:41:49.939Z,30.07
2023-02-06T22:44:18.989Z,31.60
2023-02-06T22:46:49.744Z,32.70
2023-02-06T22:49:17.359Z,39.30
2023-02-06T22:51:45.060Z,36.67
2023-02-06T22:54:13.330Z,35.83
2023-02-06T22:56:43.584Z,31.63
2023-02-06T22:59:13.555Z,38.87
2023-02-06T23:01:44.171Z,32.50
2023-02-06T23:04:13.829Z,31.83
2023-02-06T23:06:42.139Z,33.17
2023-02-06T23:09:11.876Z,37.93
2023-02-06T23:11:39.363Z,35.23
2023-02-06T23:14:08.459Z,31.10
2023-02-06T23:16:36.507Z,40.83
2023-02-06T23:19:05.932Z,33.83
2023-02-06T23:21:34.182Z,37.80
2023-02-06T23:24:01.776Z,33.90
2023-02-06T23:26:30.454Z,33.37
2023-02-06T23:28:58.323Z,30.97
2023-02-06T23:31:28.189Z,26.67
2023-02-06T23:33:56.066Z,34.73
2023-02-06T23:36:25.128Z,32.33
2023-02-06T23:38:53.350Z,27.33
2023-02-06T23:41:23.272Z,30.60
2023-02-06T23:43:51.674Z,28.80
2023-02-06T23:46:20.715Z,31.77
2023-02-06T23:48:50.117Z,28.43
2023-02-06T23:51:18.319Z,29.33
2023-02-06T23:53:45.817Z,30.00
2023-02-06T23:56:14.842Z,29.40
2023-02-06T23:58:43.171Z,27.77
